createdAt,value
2018-01-04T00:00:07.267Z,11.06
2018-01-04T00:00:47.807Z,11
2018-01-04T00:01:28.329Z,11.09
2018-01-04T00:02:08.882Z,11.03
2018-01-04T00:02:49.450Z,11.06
2018-01-04T00:03:29.964Z,11
2018-01-04T00:04:10.494Z,11.18
2018-01-04T00:04:51.048Z,11.09
2018-01-04T00:05:31.642Z,11.03
2018-01-04T00:06:12.246Z,10.96
2018-01-04T00:06:53.740Z,10.96
2018-01-04T00:07:34.303Z,10.91
2018-01-04T00:08:14.846Z,10.97
2018-01-04T00:08:55.409Z,10.94
2018-01-04T00:09:35.920Z,10.89
2018-01-04T00:10:16.464Z,11
2018-01-04T00:10:57.047Z,11
2018-01-04T00:11:37.671Z,11
2018-01-04T00:12:18.213Z,10.99
2018-01-04T00:12:58.748Z,10.94
2018-01-04T00:13:39.310Z,10.99
2018-01-04T00:14:19.799Z,10.86
2018-01-04T00:15:00.335Z,10.92
2018-01-04T00:15:40.856Z,10.96
2018-01-04T00:16:21.369Z,10.89
2018-01-04T00:17:01.919Z,10.94
2018-01-04T00:17:42.477Z,10.92
2018-01-04T00:18:23.019Z,10.91
2018-01-04T00:19:03.529Z,10.92
2018-01-04T00:19:44.093Z,10.86
2018-01-04T00:20:24.661Z,10.79
2018-01-04T00:21:05.194Z,10.84
2018-01-04T00:21:45.716Z,10.91
2018-01-04T00:22:26.223Z,10.81
2018-01-04T00:23:06.803Z,10.82
2018-01-04T00:23:47.339Z,10.96
2018-01-04T00:24:27.852Z,10.92
2018-01-04T00:25:08.421Z,10.89
2018-01-04T00:25:48.980Z,10.99
2018-01-04T00:26:29.550Z,11.04
2018-01-04T00:27:10.050Z,11.07
2018-01-04T00:27:50.601Z,11
2018-01-04T00:28:31.188Z,11.09
2018-01-04T00:29:11.671Z,11.07
2018-01-04T00:29:52.183Z,11.06
2018-01-04T00:30:32.718Z,11.15
2018-01-04T00:31:13.232Z,11.15
2018-01-04T00:31:53.800Z,11.22
2018-01-04T00:32:34.309Z,11.18
2018-01-04T00:33:14.823Z,11.11
2018-01-04T00:33:55.347Z,11.09
2018-01-04T00:34:35.922Z,11.03
2018-01-04T00:35:16.413Z,11.1
2018-01-04T00:35:56.963Z,11.03
2018-01-04T00:36:37.509Z,10.97
2018-01-04T00:37:18.049Z,11.17
2018-01-04T00:37:58.531Z,11.1
2018-01-04T00:38:39.084Z,11.04
2018-01-04T00:39:19.628Z,10.94
2018-01-04T00:40:00.156Z,10.99
2018-01-04T00:40:40.676Z,10.86
2018-01-04T00:41:21.207Z,10.86
2018-01-04T00:42:01.775Z,10.84
2018-01-04T00:42:42.267Z,10.97
2018-01-04T00:43:22.841Z,10.92
2018-01-04T00:44:03.351Z,10.94
2018-01-04T00:44:43.909Z,10.89
2018-01-04T00:45:24.565Z,10.84
2018-01-04T00:46:05.074Z,10.99
2018-01-04T00:46:45.645Z,10.97
2018-01-04T00:47:26.190Z,11
2018-01-04T00:48:06.698Z,11.1
2018-01-04T00:48:47.214Z,11.07
2018-01-04T00:49:27.774Z,10.96
2018-01-04T00:50:08.272Z,11.07
2018-01-04T00:50:48.792Z,11.06
2018-01-04T00:51:29.330Z,11.04
2018-01-04T00:52:09.863Z,11.1
2018-01-04T00:52:50.393Z,11.04
2018-01-04T00:53:30.994Z,10.96
2018-01-04T00:54:11.546Z,11.09
2018-01-04T00:54:52.070Z,11.07
2018-01-04T00:55:32.637Z,11.11
2018-01-04T00:56:13.132Z,11.15
2018-01-04T00:56:53.701Z,11.17
2018-01-04T00:57:34.200Z,11.09
2018-01-04T00:58:14.755Z,11.06
2018-01-04T00:58:55.283Z,11.15
2018-01-04T00:59:35.823Z,11.1
2018-01-04T01:00:16.343Z,11.19
2018-01-04T01:00:56.902Z,11.21
2018-01-04T01:01:37.439Z,11.11
2018-01-04T01:02:17.944Z,11.04
2018-01-04T01:02:58.505Z,11.17
2018-01-04T01:03:39.070Z,11.09
2018-01-04T01:04:19.542Z,11.03
2018-01-04T01:05:00.070Z,11.02
2018-01-04T01:05:40.602Z,11.03
2018-01-04T01:06:21.156Z,10.96
2018-01-04T01:07:01.717Z,11.02
2018-01-04T01:07:42.265Z,10.99
2018-01-04T01:08:22.791Z,11.07
2018-01-04T01:09:03.333Z,11.09
2018-01-04T01:09:43.835Z,11.17
2018-01-04T01:10:24.393Z,11.07
2018-01-04T01:11:04.897Z,11.07
2018-01-04T01:11:45.465Z,10.96
2018-01-04T01:12:26.007Z,11.03
2018-01-04T01:13:06.546Z,11.04
2018-01-04T01:13:47.065Z,11.04
2018-01-04T01:14:27.612Z,11.1
2018-01-04T01:15:08.145Z,11.04
2018-01-04T01:15:48.679Z,11.1
2018-01-04T01:16:29.214Z,11.07
2018-01-04T01:17:09.752Z,11.07
2018-01-04T01:17:50.227Z,11.04
2018-01-04T01:18:30.767Z,11.06
2018-01-04T01:19:11.311Z,11.1
2018-01-04T01:19:51.813Z,10.99
2018-01-04T01:20:32.345Z,11
2018-01-04T01:21:12.887Z,10.97
2018-01-04T01:21:53.460Z,10.99
2018-01-04T01:22:33.950Z,10.89
2018-01-04T01:23:14.505Z,10.97
2018-01-04T01:23:55.066Z,10.94
2018-01-04T01:24:35.629Z,11
2018-01-04T01:25:16.131Z,11
2018-01-04T01:25:56.644Z,11
2018-01-04T01:26:37.185Z,10.99
2018-01-04T01:27:17.672Z,11
2018-01-04T01:27:58.248Z,10.99
2018-01-04T01:28:38.794Z,11.04
2018-01-04T01:29:19.345Z,10.96
2018-01-04T01:29:59.858Z,11.06
2018-01-04T01:30:40.355Z,10.92
2018-01-04T01:31:20.896Z,10.94
2018-01-04T01:32:01.420Z,10.96
2018-01-04T01:32:41.940Z,10.97
2018-01-04T01:33:22.560Z,10.92
2018-01-04T01:34:03.079Z,11.04
2018-01-04T01:34:43.629Z,10.99
2018-01-04T01:35:24.173Z,10.99
2018-01-04T01:36:04.686Z,11.02
2018-01-04T01:36:45.262Z,10.99
2018-01-04T01:37:25.774Z,11
2018-01-04T01:38:06.377Z,10.94
2018-01-04T01:38:46.904Z,10.96
2018-01-04T01:39:28.348Z,10.86
2018-01-04T01:40:09.052Z,10.78
2018-01-04T01:40:49.904Z,10.79
2018-01-04T01:41:31.806Z,10.81
2018-01-04T01:42:12.353Z,10.79
2018-01-04T01:42:53.033Z,10.79
2018-01-04T01:43:33.613Z,10.84
2018-01-04T01:44:14.082Z,10.91
2018-01-04T01:44:54.622Z,10.85
2018-01-04T01:45:35.152Z,10.96
2018-01-04T01:46:15.646Z,10.94
2018-01-04T01:46:56.207Z,10.96
2018-01-04T01:47:36.731Z,10.88
2018-01-04T01:48:17.264Z,10.82
2018-01-04T01:48:57.821Z,10.88
2018-01-04T01:49:38.367Z,10.92
2018-01-04T01:50:18.898Z,10.92
2018-01-04T01:50:59.440Z,10.82
2018-01-04T01:51:40.053Z,10.92
2018-01-04T01:52:20.556Z,10.84
2018-01-04T01:53:01.064Z,10.84
2018-01-04T01:53:41.602Z,10.79
2018-01-04T01:54:22.141Z,10.76
2018-01-04T01:55:02.631Z,10.76
2018-01-04T01:55:43.168Z,10.73
2018-01-04T01:56:23.690Z,10.74
2018-01-04T01:57:04.168Z,10.63
2018-01-04T01:57:44.742Z,10.63
2018-01-04T01:58:25.261Z,10.74
2018-01-04T01:59:05.755Z,10.55
2018-01-04T01:59:46.285Z,10.63
2018-01-04T02:00:26.842Z,10.66
2018-01-04T02:01:07.387Z,10.7
2018-01-04T02:01:47.946Z,10.63
2018-01-04T02:02:28.459Z,10.7
2018-01-04T02:03:08.992Z,10.74
2018-01-04T02:03:50.154Z,10.68
2018-01-04T02:04:30.634Z,10.73
2018-01-04T02:05:11.158Z,10.63
2018-01-04T02:05:51.693Z,10.78
2018-01-04T02:06:32.332Z,10.73
2018-01-04T02:07:12.834Z,10.81
2018-01-04T02:07:53.333Z,10.84
2018-01-04T02:08:33.904Z,10.76
2018-01-04T02:09:14.405Z,10.78
2018-01-04T02:09:54.954Z,10.81
2018-01-04T02:10:35.481Z,10.82
2018-01-04T02:11:16.014Z,10.79
2018-01-04T02:11:56.552Z,10.82
2018-01-04T02:12:37.118Z,10.84
2018-01-04T02:13:17.599Z,10.79
2018-01-04T02:13:58.158Z,10.79
2018-01-04T02:14:38.668Z,10.82
2018-01-04T02:15:19.197Z,10.82
2018-01-04T02:15:59.749Z,10.81
2018-01-04T02:16:40.295Z,10.64
2018-01-04T02:17:20.850Z,10.6
2018-01-04T02:18:01.371Z,10.55
2018-01-04T02:18:41.901Z,10.74
2018-01-04T02:19:22.442Z,10.84
2018-01-04T02:20:03.012Z,10.78
2018-01-04T02:20:43.509Z,10.81
2018-01-04T02:21:24.035Z,10.82
2018-01-04T02:22:04.590Z,10.89
2018-01-04T02:22:45.132Z,10.84
2018-01-04T02:23:25.649Z,10.86
2018-01-04T02:24:06.189Z,10.91
2018-01-04T02:24:46.690Z,10.94
2018-01-04T02:25:27.191Z,10.91
2018-01-04T02:26:07.703Z,10.88
2018-01-04T02:26:48.223Z,10.86
2018-01-04T02:27:28.798Z,10.97
2018-01-04T02:28:09.277Z,10.96
2018-01-04T02:28:49.787Z,10.94
2018-01-04T02:29:30.330Z,10.92
2018-01-04T02:30:10.875Z,10.97
2018-01-04T02:30:51.438Z,11.07
2018-01-04T02:31:32.000Z,11.04
2018-01-04T02:32:12.538Z,11.07
2018-01-04T02:32:53.111Z,11.07
2018-01-04T02:33:33.627Z,11.09
2018-01-04T02:34:14.135Z,11.14
2018-01-04T02:34:54.717Z,10.96
2018-01-04T02:35:35.257Z,10.92
2018-01-04T02:36:15.804Z,10.99
2018-01-04T02:36:56.353Z,11.09
2018-01-04T02:37:36.873Z,11.09
2018-01-04T02:38:17.433Z,11.06
2018-01-04T02:38:57.988Z,11.09
2018-01-04T02:39:38.540Z,11.04
2018-01-04T02:40:19.045Z,11.21
2018-01-04T02:40:59.622Z,11.1
2018-01-04T02:41:40.117Z,11.06
2018-01-04T02:42:20.667Z,11.1
2018-01-04T02:43:01.180Z,11.25
2018-01-04T02:43:41.721Z,11.09
2018-01-04T02:44:22.280Z,11.04
2018-01-04T02:45:02.828Z,11.21
2018-01-04T02:45:43.388Z,11.22
2018-01-04T02:46:23.920Z,11.15
2018-01-04T02:47:04.481Z,11.36
2018-01-04T02:47:45.032Z,11.28
2018-01-04T02:48:25.585Z,11.21
2018-01-04T02:49:06.127Z,11.22
2018-01-04T02:49:46.660Z,11.29
2018-01-04T02:50:27.212Z,11.35
2018-01-04T02:51:07.714Z,11.18
2018-01-04T02:51:48.260Z,11.21
2018-01-04T02:52:28.756Z,11.27
2018-01-04T02:53:09.282Z,11.19
2018-01-04T02:53:49.825Z,11.18
2018-01-04T02:54:30.359Z,11.11
2018-01-04T02:55:10.892Z,11.04
2018-01-04T02:55:51.448Z,11.09
2018-01-04T02:56:31.963Z,11.14
2018-01-04T02:57:12.532Z,11.1
2018-01-04T02:57:53.078Z,11.14
2018-01-04T02:58:33.611Z,11.11
2018-01-04T02:59:14.143Z,11.07
2018-01-04T02:59:54.674Z,11.06
2018-01-04T03:00:35.187Z,11.03
2018-01-04T03:01:15.739Z,11.11
2018-01-04T03:01:56.325Z,11.11
2018-01-04T03:02:36.918Z,10.97
2018-01-04T03:03:17.412Z,11.02
2018-01-04T03:03:57.954Z,10.96
2018-01-04T03:04:38.506Z,11.04
2018-01-04T03:05:19.048Z,11.11
2018-01-04T03:05:59.724Z,11.07
2018-01-04T03:06:40.273Z,10.97
2018-01-04T03:07:20.788Z,11.02
2018-01-04T03:08:01.342Z,10.89
2018-01-04T03:08:41.879Z,10.94
2018-01-04T03:09:22.412Z,11
2018-01-04T03:10:02.934Z,11.02
2018-01-04T03:10:43.517Z,11
2018-01-04T03:11:24.074Z,10.99
2018-01-04T03:12:04.588Z,10.96
2018-01-04T03:12:45.112Z,11
2018-01-04T03:13:25.614Z,10.91
2018-01-04T03:14:06.345Z,10.96
2018-01-04T03:14:47.161Z,10.94
2018-01-04T03:15:27.713Z,10.92
2018-01-04T03:16:08.284Z,10.99
2018-01-04T03:16:48.756Z,10.97
2018-01-04T03:17:29.303Z,10.94
2018-01-04T03:18:09.829Z,10.89
2018-01-04T03:18:50.408Z,10.99
2018-01-04T03:19:30.923Z,10.96
2018-01-04T03:20:11.430Z,10.94
2018-01-04T03:20:51.960Z,10.89
2018-01-04T03:21:32.511Z,10.84
2018-01-04T03:22:13.075Z,10.82
2018-01-04T03:22:53.724Z,10.82
2018-01-04T03:23:34.218Z,10.74
2018-01-04T03:24:14.794Z,10.81
2018-01-04T03:24:55.341Z,10.78
2018-01-04T03:25:35.854Z,10.88
2018-01-04T03:26:16.381Z,10.84
2018-01-04T03:26:56.995Z,10.85
2018-01-04T03:27:37.476Z,10.88
2018-01-04T03:28:17.990Z,10.86
2018-01-04T03:28:58.571Z,10.92
2018-01-04T03:29:39.082Z,10.89
2018-01-04T03:30:19.621Z,10.84
2018-01-04T03:31:00.137Z,10.86
2018-01-04T03:31:40.651Z,10.86
2018-01-04T03:32:21.194Z,10.84
2018-01-04T03:33:01.722Z,10.82
2018-01-04T03:33:42.221Z,10.91
2018-01-04T03:34:22.774Z,10.94
2018-01-04T03:35:03.308Z,10.86
2018-01-04T03:35:43.856Z,10.82
2018-01-04T03:36:24.373Z,10.96
2018-01-04T03:37:04.909Z,10.97
2018-01-04T03:37:45.408Z,10.96
2018-01-04T03:38:25.964Z,10.88
2018-01-04T03:39:06.496Z,10.85
2018-01-04T03:39:47.011Z,10.94
2018-01-04T03:40:27.530Z,11.06
2018-01-04T03:41:08.080Z,11
2018-01-04T03:41:48.601Z,10.94
2018-01-04T03:42:29.184Z,10.88
2018-01-04T03:43:09.710Z,10.84
2018-01-04T03:43:50.446Z,10.82
2018-01-04T03:44:31.586Z,10.86
2018-01-04T03:45:12.831Z,10.84
2018-01-04T03:45:53.421Z,10.81
2018-01-04T03:46:33.975Z,10.84
2018-01-04T03:47:14.504Z,10.74
2018-01-04T03:47:54.999Z,10.76
2018-01-04T03:48:35.528Z,10.74
2018-01-04T03:49:16.067Z,10.67
2018-01-04T03:49:56.615Z,10.51
2018-01-04T03:50:37.125Z,10.66
2018-01-04T03:51:17.660Z,10.63
2018-01-04T03:51:58.230Z,10.6
2018-01-04T03:52:38.743Z,10.68
2018-01-04T03:53:19.246Z,10.68
2018-01-04T03:53:59.794Z,10.55
2018-01-04T03:54:40.371Z,10.68
2018-01-04T03:55:20.849Z,10.6
2018-01-04T03:56:01.405Z,10.52
2018-01-04T03:56:41.950Z,10.51
2018-01-04T03:57:22.424Z,10.51
2018-01-04T03:58:02.977Z,10.59
2018-01-04T03:58:43.519Z,10.42
2018-01-04T03:59:24.027Z,10.45
2018-01-04T04:00:04.549Z,10.55
2018-01-04T04:00:45.128Z,10.52
2018-01-04T04:01:25.661Z,10.53
2018-01-04T04:02:06.189Z,10.59
2018-01-04T04:02:46.795Z,10.6
2018-01-04T04:03:27.296Z,10.51
2018-01-04T04:04:07.863Z,10.53
2018-01-04T04:04:48.381Z,10.53
2018-01-04T04:05:28.937Z,10.52
2018-01-04T04:06:09.476Z,10.51
2018-01-04T04:06:50.014Z,10.61
2018-01-04T04:07:30.521Z,10.68
2018-01-04T04:08:11.082Z,10.74
2018-01-04T04:08:51.571Z,10.66
2018-01-04T04:09:32.144Z,10.66
2018-01-04T04:10:12.726Z,10.52
2018-01-04T04:10:53.239Z,10.56
2018-01-04T04:11:33.772Z,10.55
2018-01-04T04:12:14.329Z,10.55
2018-01-04T04:12:54.818Z,10.59
2018-01-04T04:13:35.341Z,10.36
2018-01-04T04:14:15.894Z,10.55
2018-01-04T04:14:56.474Z,10.42
2018-01-04T04:15:36.992Z,10.44
2018-01-04T04:16:17.512Z,10.51
2018-01-04T04:16:58.070Z,10.61
2018-01-04T04:17:38.617Z,10.61
2018-01-04T04:18:19.132Z,10.52
2018-01-04T04:18:59.647Z,10.55
2018-01-04T04:19:40.197Z,10.45
2018-01-04T04:20:20.736Z,10.51
2018-01-04T04:21:01.221Z,10.55
2018-01-04T04:21:41.795Z,10.36
2018-01-04T04:22:22.316Z,10.36
2018-01-04T04:23:02.834Z,10.26
2018-01-04T04:23:43.347Z,10.3
2018-01-04T04:24:23.952Z,10.12
2018-01-04T04:25:04.465Z,10.29
2018-01-04T04:25:45.014Z,10.18
2018-01-04T04:26:25.592Z,10.22
2018-01-04T04:27:06.144Z,10.11
2018-01-04T04:27:46.654Z,10.25
2018-01-04T04:28:27.223Z,10.15
2018-01-04T04:29:07.724Z,10.23
2018-01-04T04:29:48.280Z,10.07
2018-01-04T04:30:28.774Z,10.09
2018-01-04T04:31:09.329Z,10.07
2018-01-04T04:31:49.862Z,9.96
2018-01-04T04:32:30.337Z,10.04
2018-01-04T04:33:10.922Z,10.12
2018-01-04T04:33:51.465Z,10.22
2018-01-04T04:34:31.984Z,10.26
2018-01-04T04:35:12.541Z,10.32
2018-01-04T04:35:53.042Z,10.29
2018-01-04T04:36:33.606Z,10.29
2018-01-04T04:37:14.137Z,10.38
2018-01-04T04:37:54.727Z,10.34
2018-01-04T04:38:35.231Z,10.27
2018-01-04T04:39:15.761Z,10.38
2018-01-04T04:39:56.334Z,10.42
2018-01-04T04:40:36.920Z,10.55
2018-01-04T04:41:17.461Z,10.56
2018-01-04T04:41:57.955Z,10.55
2018-01-04T04:42:38.532Z,10.51
2018-01-04T04:43:19.097Z,10.52
2018-01-04T04:43:59.603Z,10.44
2018-01-04T04:44:40.127Z,10.42
2018-01-04T04:45:20.639Z,10.41
2018-01-04T04:46:01.184Z,10.48
2018-01-04T04:46:41.720Z,10.53
2018-01-04T04:47:22.258Z,10.56
2018-01-04T04:48:02.821Z,10.41
2018-01-04T04:48:43.352Z,10.6
2018-01-04T04:49:23.893Z,10.48
2018-01-04T04:50:04.391Z,10.55
2018-01-04T04:50:44.960Z,10.51
2018-01-04T04:51:25.448Z,10.34
2018-01-04T04:52:05.949Z,10.33
2018-01-04T04:52:46.495Z,10.25
2018-01-04T04:53:27.010Z,10.25
2018-01-04T04:54:07.577Z,10.26
2018-01-04T04:54:48.089Z,10.29
2018-01-04T04:55:28.641Z,10.11
2018-01-04T04:56:09.186Z,10.18
2018-01-04T04:56:49.706Z,10.27
2018-01-04T04:57:30.268Z,10.29
2018-01-04T04:58:10.800Z,10.33
2018-01-04T04:58:51.381Z,10.33
2018-01-04T04:59:31.917Z,10.36
2018-01-04T05:00:12.430Z,10.36
2018-01-04T05:00:52.961Z,10.17
2018-01-04T05:01:33.521Z,10.14
2018-01-04T05:02:14.095Z,10.17
2018-01-04T05:02:54.654Z,10.11
2018-01-04T05:03:35.141Z,9.96
2018-01-04T05:04:15.705Z,9.91
2018-01-04T05:04:56.184Z,9.9
2018-01-04T05:05:36.712Z,9.96
2018-01-04T05:06:17.270Z,10.02
2018-01-04T05:06:57.811Z,10.08
2018-01-04T05:07:38.330Z,10.08
2018-01-04T05:08:18.834Z,10.11
2018-01-04T05:08:59.367Z,10.07
2018-01-04T05:09:39.898Z,10.08
2018-01-04T05:10:20.419Z,10.2
2018-01-04T05:11:00.991Z,10.15
2018-01-04T05:11:41.463Z,10.2
2018-01-04T05:12:22.018Z,10.15
2018-01-04T05:13:02.547Z,10.18
2018-01-04T05:13:43.063Z,10.23
2018-01-04T05:14:23.593Z,10.2
2018-01-04T05:15:04.134Z,10.15
2018-01-04T05:15:44.686Z,10.32
2018-01-04T05:16:25.189Z,10.2
2018-01-04T05:17:05.740Z,10.33
2018-01-04T05:17:46.268Z,10.36
2018-01-04T05:18:26.810Z,10.52
2018-01-04T05:19:07.374Z,10.56
2018-01-04T05:19:47.877Z,10.59
2018-01-04T05:20:28.462Z,10.73
2018-01-04T05:21:09.008Z,10.68
2018-01-04T05:21:49.553Z,10.61
2018-01-04T05:22:30.060Z,10.71
2018-01-04T05:23:10.611Z,10.63
2018-01-04T05:23:51.137Z,10.71
2018-01-04T05:24:31.664Z,10.73
2018-01-04T05:25:12.210Z,10.51
2018-01-04T05:25:52.784Z,10.61
2018-01-04T05:26:33.289Z,10.59
2018-01-04T05:27:13.808Z,10.64
2018-01-04T05:27:54.353Z,10.64
2018-01-04T05:28:34.910Z,10.6
2018-01-04T05:29:15.405Z,10.59
2018-01-04T05:29:55.954Z,10.67
2018-01-04T05:30:36.488Z,10.59
2018-01-04T05:31:17.015Z,10.63
2018-01-04T05:31:57.543Z,10.48
2018-01-04T05:32:38.085Z,10.4
2018-01-04T05:33:18.617Z,10.45
2018-01-04T05:33:59.153Z,10.38
2018-01-04T05:34:39.696Z,10.38
2018-01-04T05:35:20.249Z,10.18
2018-01-04T05:36:00.755Z,10.14
2018-01-04T05:36:41.333Z,10.05
2018-01-04T05:37:21.870Z,10.08
2018-01-04T05:38:02.417Z,10.2
2018-01-04T05:38:42.972Z,10.2
2018-01-04T05:39:23.522Z,10.29
2018-01-04T05:40:04.035Z,10.4
2018-01-04T05:40:44.617Z,10.38
2018-01-04T05:41:25.081Z,10.32
2018-01-04T05:42:05.611Z,10.34
2018-01-04T05:42:46.281Z,10.34
2018-01-04T05:43:26.775Z,10.36
2018-01-04T05:44:07.370Z,10.52
2018-01-04T05:44:47.895Z,10.55
2018-01-04T05:45:28.465Z,10.52
2018-01-04T05:46:08.970Z,10.66
2018-01-04T05:46:49.464Z,10.67
2018-01-04T05:47:30.004Z,10.56
2018-01-04T05:48:10.549Z,10.56
2018-01-04T05:48:51.096Z,10.55
2018-01-04T05:49:31.631Z,10.4
2018-01-04T05:50:12.173Z,10.3
2018-01-04T05:50:52.752Z,10.29
2018-01-04T05:51:33.279Z,10.15
2018-01-04T05:52:13.800Z,10.04
2018-01-04T05:52:54.361Z,10.05
2018-01-04T05:53:34.871Z,10.02
2018-01-04T05:54:15.424Z,10.04
2018-01-04T05:54:55.963Z,10.09
2018-01-04T05:55:36.509Z,10.2
2018-01-04T05:56:17.042Z,10.11
2018-01-04T05:56:57.577Z,10.18
2018-01-04T05:57:38.099Z,10.15
2018-01-04T05:58:18.672Z,10.17
2018-01-04T05:58:59.223Z,10.18
2018-01-04T05:59:39.758Z,10.11
2018-01-04T06:00:20.349Z,10.2
2018-01-04T06:01:00.830Z,10.02
2018-01-04T06:01:41.359Z,10.08
2018-01-04T06:02:21.871Z,10.18
2018-01-04T06:03:02.439Z,10.04
2018-01-04T06:03:43.841Z,10.14
2018-01-04T06:04:24.400Z,10.33
2018-01-04T06:05:04.937Z,10.36
2018-01-04T06:05:45.497Z,10.6
2018-01-04T06:06:26.028Z,10.51
2018-01-04T06:07:06.585Z,10.56
2018-01-04T06:07:47.091Z,10.52
2018-01-04T06:08:28.301Z,10.63
2018-01-04T06:09:08.922Z,10.63
2018-01-04T06:09:49.439Z,10.61
2018-01-04T06:10:30.007Z,10.66
2018-01-04T06:11:10.527Z,10.61
2018-01-04T06:11:51.064Z,10.52
2018-01-04T06:12:31.587Z,10.66
2018-01-04T06:13:12.147Z,10.6
2018-01-04T06:13:52.644Z,10.66
2018-01-04T06:14:33.183Z,10.76
2018-01-04T06:15:13.718Z,10.7
2018-01-04T06:15:54.255Z,10.61
2018-01-04T06:16:34.883Z,10.6
2018-01-04T06:17:15.412Z,10.59
2018-01-04T06:17:55.922Z,10.66
2018-01-04T06:18:36.465Z,10.55
2018-01-04T06:19:17.006Z,10.59
2018-01-04T06:19:57.555Z,10.74
2018-01-04T06:20:38.085Z,10.66
2018-01-04T06:21:18.624Z,10.74
2018-01-04T06:21:59.151Z,10.7
2018-01-04T06:22:39.688Z,10.61
2018-01-04T06:23:20.266Z,10.78
2018-01-04T06:24:00.781Z,10.79
2018-01-04T06:24:41.340Z,10.85
2018-01-04T06:25:21.861Z,10.79
2018-01-04T06:26:02.346Z,10.76
2018-01-04T06:26:42.922Z,10.82
2018-01-04T06:27:23.433Z,10.85
2018-01-04T06:28:03.942Z,10.94
2018-01-04T06:28:44.504Z,10.89
2018-01-04T06:29:25.048Z,11.02
2018-01-04T06:30:05.593Z,11.32
2018-01-04T06:30:46.138Z,11.15
2018-01-04T06:31:26.658Z,11.19
2018-01-04T06:32:07.204Z,11.29
2018-01-04T06:32:47.743Z,11.4
2018-01-04T06:33:28.287Z,11.35
2018-01-04T06:34:08.870Z,11.19
2018-01-04T06:34:49.421Z,11.03
2018-01-04T06:35:29.972Z,11.09
2018-01-04T06:36:10.497Z,11.02
2018-01-04T06:36:51.033Z,11.03
2018-01-04T06:37:31.551Z,11.02
2018-01-04T06:38:12.092Z,11.09
2018-01-04T06:38:52.639Z,11.1
2018-01-04T06:39:33.176Z,10.99
2018-01-04T06:40:13.705Z,11.04
2018-01-04T06:40:54.220Z,10.96
2018-01-04T06:41:34.799Z,10.96
2018-01-04T06:42:15.342Z,11
2018-01-04T06:42:55.876Z,10.96
2018-01-04T06:43:36.385Z,11.04
2018-01-04T06:44:16.990Z,11.04
2018-01-04T06:44:57.510Z,10.97
2018-01-04T06:45:37.987Z,10.94
2018-01-04T06:46:18.551Z,11.09
2018-01-04T06:46:59.078Z,10.97
2018-01-04T06:47:39.604Z,11.03
2018-01-04T06:48:20.136Z,11.09
2018-01-04T06:49:00.730Z,11.06
2018-01-04T06:49:41.257Z,11.1
2018-01-04T06:50:21.778Z,11.07
2018-01-04T06:51:02.316Z,11.09
2018-01-04T06:51:42.903Z,10.94
2018-01-04T06:52:23.409Z,11.07
2018-01-04T06:53:03.958Z,11.03
2018-01-04T06:53:44.483Z,11.11
2018-01-04T06:54:25.003Z,11.06
2018-01-04T06:55:05.600Z,11.06
2018-01-04T06:55:46.115Z,10.94
2018-01-04T06:56:26.646Z,11.07
2018-01-04T06:57:07.188Z,11.07
2018-01-04T06:57:47.713Z,11.43
2018-01-04T06:58:28.268Z,11.58
2018-01-04T06:59:08.797Z,11.6
2018-01-04T06:59:49.347Z,11.96
2018-01-04T07:00:29.892Z,11.94
2018-01-04T07:01:10.429Z,11.57
2018-01-04T07:01:50.981Z,11.86
2018-01-04T07:02:31.483Z,12.17
2018-01-04T07:03:12.036Z,12.12
2018-01-04T07:03:52.556Z,12.6
2018-01-04T07:04:33.097Z,12.47
2018-01-04T07:05:13.629Z,12.62
2018-01-04T07:05:54.195Z,12.23
2018-01-04T07:06:34.785Z,12.37
2018-01-04T07:07:15.263Z,11.85
2018-01-04T07:07:55.790Z,11.86
2018-01-04T07:08:36.347Z,11.36
2018-01-04T07:09:16.841Z,11.21
2018-01-04T07:09:57.363Z,11.14
2018-01-04T07:10:37.926Z,11.15
2018-01-04T07:11:18.481Z,11.29
2018-01-04T07:11:59.018Z,11.29
2018-01-04T07:12:39.566Z,11.64
2018-01-04T07:13:20.091Z,12.04
2018-01-04T07:14:00.659Z,12.37
2018-01-04T07:14:41.172Z,12.13
2018-01-04T07:15:21.702Z,12.24
2018-01-04T07:16:02.268Z,11.98
2018-01-04T07:16:42.794Z,12.19
2018-01-04T07:17:23.370Z,12.35
2018-01-04T07:18:03.891Z,12.28
2018-01-04T07:18:44.437Z,12.13
2018-01-04T07:19:24.998Z,12.49
2018-01-04T07:20:05.487Z,12.56
2018-01-04T07:20:46.052Z,12.57
2018-01-04T07:21:26.642Z,12.29
2018-01-04T07:22:07.175Z,12.13
2018-01-04T07:22:47.735Z,12.1
2018-01-04T07:23:28.269Z,11.8
2018-01-04T07:24:08.844Z,11.72
2018-01-04T07:24:49.386Z,11.64
2018-01-04T07:25:29.921Z,11.58
2018-01-04T07:26:10.455Z,11.52
2018-01-04T07:26:51.025Z,11.52
2018-01-04T07:27:31.578Z,11.64
2018-01-04T07:28:12.165Z,11.54
2018-01-04T07:28:52.642Z,11.72
2018-01-04T07:29:33.178Z,11.76
2018-01-04T07:30:13.708Z,11.76
2018-01-04T07:30:54.260Z,11.88
2018-01-04T07:31:34.798Z,11.65
2018-01-04T07:32:15.348Z,11.82
2018-01-04T07:32:55.846Z,11.86
2018-01-04T07:33:36.410Z,11.64
2018-01-04T07:34:16.884Z,11.67
2018-01-04T07:34:57.422Z,11.72
2018-01-04T07:35:38.030Z,11.62
2018-01-04T07:36:18.546Z,11.67
2018-01-04T07:36:59.106Z,11.52
2018-01-04T07:37:39.696Z,11.57
2018-01-04T07:38:20.230Z,11.6
2018-01-04T07:39:00.776Z,11.61
2018-01-04T07:39:41.305Z,11.51
2018-01-04T07:40:21.823Z,11.54
2018-01-04T07:41:02.404Z,11.54
2018-01-04T07:41:42.901Z,11.58
2018-01-04T07:42:24.464Z,11.49
2018-01-04T07:43:05.819Z,11.42
2018-01-04T07:43:46.364Z,11.47
2018-01-04T07:44:26.941Z,11.37
2018-01-04T07:45:07.492Z,11.44
2018-01-04T07:45:48.029Z,11.44
2018-01-04T07:46:28.590Z,11.52
2018-01-04T07:47:09.129Z,11.62
2018-01-04T07:47:49.639Z,11.49
2018-01-04T07:48:30.180Z,11.61
2018-01-04T07:49:10.804Z,11.54
2018-01-04T07:49:51.314Z,11.67
2018-01-04T07:50:31.797Z,11.69
2018-01-04T07:51:12.351Z,11.64
2018-01-04T07:51:52.852Z,11.64
2018-01-04T07:52:33.402Z,11.69
2018-01-04T07:53:13.913Z,11.75
2018-01-04T07:53:54.430Z,11.73
2018-01-04T07:54:35.008Z,11.75
2018-01-04T07:55:15.526Z,11.82
2018-01-04T07:55:56.077Z,11.82
2018-01-04T07:56:36.732Z,11.96
2018-01-04T07:57:17.965Z,12.27
2018-01-04T07:57:58.435Z,12.53
2018-01-04T07:58:38.982Z,12.82
2018-01-04T07:59:19.491Z,12.95
2018-01-04T08:00:00.050Z,12.65
2018-01-04T08:00:40.860Z,11.96
2018-01-04T08:01:22.255Z,11.8
2018-01-04T08:02:02.771Z,12.28
2018-01-04T08:02:43.323Z,12.56
2018-01-04T08:03:23.847Z,12.68
2018-01-04T08:04:04.545Z,12.96
2018-01-04T08:04:45.080Z,13.03
2018-01-04T08:05:25.627Z,13
2018-01-04T08:06:06.108Z,13.1
2018-01-04T08:06:46.711Z,12.82
2018-01-04T08:07:27.292Z,12.53
2018-01-04T08:08:07.841Z,12.57
2018-01-04T08:08:48.389Z,12.49
2018-01-04T08:09:28.908Z,12.37
2018-01-04T08:10:09.517Z,12.27
2018-01-04T08:10:49.953Z,12.35
2018-01-04T08:11:30.581Z,12.5
2018-01-04T08:12:11.061Z,12.56
2018-01-04T08:12:51.635Z,12.67
2018-01-04T08:13:32.212Z,12.82
2018-01-04T08:14:12.740Z,13.04
2018-01-04T08:14:53.283Z,12.95
2018-01-04T08:15:33.865Z,12.97
2018-01-04T08:16:14.375Z,13.03
2018-01-04T08:16:55.083Z,13
2018-01-04T08:17:35.463Z,13.08
2018-01-04T08:18:16.000Z,13.08
2018-01-04T08:18:56.557Z,13.1
2018-01-04T08:19:37.097Z,12.97
2018-01-04T08:20:17.638Z,12.95
2018-01-04T08:20:58.197Z,12.95
2018-01-04T08:21:38.939Z,12.83
2018-01-04T08:22:19.907Z,12.6
2018-01-04T08:23:00.504Z,12.57
2018-01-04T08:23:41.021Z,12.41
2018-01-04T08:24:21.592Z,12.47
2018-01-04T08:25:02.188Z,12.45
2018-01-04T08:25:42.734Z,12.5
2018-01-04T08:26:23.318Z,12.47
2018-01-04T08:27:03.832Z,12.47
2018-01-04T08:27:44.370Z,12.5
2018-01-04T08:28:24.938Z,12.37
2018-01-04T08:29:05.450Z,12.47
2018-01-04T08:29:45.964Z,12.52
2018-01-04T08:30:26.752Z,12.71
2018-01-04T08:31:07.247Z,12.75
2018-01-04T08:31:47.772Z,12.85
2018-01-04T08:32:28.314Z,12.85
2018-01-04T08:33:08.848Z,12.75
2018-01-04T08:33:49.411Z,12.7
2018-01-04T08:34:29.969Z,12.71
2018-01-04T08:35:10.540Z,12.68
2018-01-04T08:35:51.106Z,12.68
2018-01-04T08:36:31.624Z,12.54
2018-01-04T08:37:12.178Z,12.56
2018-01-04T08:37:52.754Z,12.52
2018-01-04T08:38:33.298Z,12.68
2018-01-04T08:39:13.871Z,12.65
2018-01-04T08:39:59.156Z,12.49
2018-01-04T08:40:45.058Z,12.56
2018-01-04T08:41:27.793Z,12.64
2018-01-04T08:42:08.374Z,12.53
2018-01-04T08:42:49.036Z,12.56
2018-01-04T08:43:29.570Z,12.54
2018-01-04T08:44:10.064Z,12.65
2018-01-04T08:44:50.615Z,12.64